Time;durP1;ratioP1;P1;durP2;ratioP2;P2;SDS_P1;SDS_P2;PMS_P1;PMS_P2;Temp;Humidity;BMP_temperature;BMP_pressure;BME280_temperature;BME280_humidity;BME280_pressure;Samples;Min_cycle;Max_cycle;Signal;HPM_P1;HPM_P2
2023/06/09 00:02:03;;;;;;;3.95;2.10;;;;;;;;;;5056779;28;20020;-83
2023/06/09 00:04:30;;;;;;;3.85;2.08;;;;;;;;;;5056086;28;20060;-83
2023/06/09 00:06:55;;;;;;;4.80;2.25;;;;;;;;;;5073794;28;20049;-83
2023/06/09 00:09:21;;;;;;;6.50;1.90;;;;;;;;;;5074157;28;20044;-83
2023/06/09 00:11:47;;;;;;;5.97;2.03;;;;;;;;;;5039773;28;20032;-84
2023/06/09 00:14:13;;;;;;;4.32;1.95;;;;;;;;;;5056027;28;20125;-83
2023/06/09 00:16:38;;;;;;;3.97;2.00;;;;;;;;;;5056332;28;20488;-83
2023/06/09 00:19:09;;;;;;;4.28;2.10;;;;;;;;;;5056572;28;20090;-83
2023/06/09 00:21:37;;;;;;;5.75;1.92;;;;;;;;;;5024305;28;20024;-84
2023/06/09 00:24:03;;;;;;;5.53;2.15;;;;;;;;;;5056026;28;20027;-83
2023/06/09 00:26:28;;;;;;;4.07;2.05;;;;;;;;;;5023127;28;20107;-84
2023/06/09 00:28:54;;;;;;;3.20;1.88;;;;;;;;;;5073837;28;20428;-84
2023/06/09 00:31:19;;;;;;;5.03;2.08;;;;;;;;;;5056353;28;20078;-84
2023/06/09 00:33:45;;;;;;;4.55;1.90;;;;;;;;;;5056352;28;20035;-84
2023/06/09 00:36:10;;;;;;;4.13;1.85;;;;;;;;;;5022978;28;20025;-84
2023/06/09 00:38:36;;;;;;;4.45;2.17;;;;;;;;;;5039140;28;20039;-84
2023/06/09 00:41:01;;;;;;;7.20;1.90;;;;;;;;;;5055614;28;20032;-83
2023/06/09 00:43:26;;;;;;;3.38;1.95;;;;;;;;;;5055648;28;20488;-84
2023/06/09 00:45:53;;;;;;;6.00;2.38;;;;;;;;;;5055700;28;20119;-84
2023/06/09 00:48:18;;;;;;;4.10;2.08;;;;;;;;;;5022864;28;20036;-84
2023/06/09 00:50:43;;;;;;;3.25;1.90;;;;;;;;;;5038930;28;20162;-83
2023/06/09 00:53:10;;;;;;;4.35;2.10;;;;;;;;;;5038871;28;20052;-83
2023/06/09 00:55:39;;;;;;;3.20;1.85;;;;;;;;;;5055489;28;20032;-83
2023/06/09 00:58:06;;;;;;;3.00;2.00;;;;;;;;;;5038890;28;20036;-83
2023/06/09 01:00:33;;;;;;;3.92;1.77;;;;;;;;;;5038743;28;20024;-83
2023/06/09 01:03:01;;;;;;;7.95;2.28;;;;;;;;;;5055796;28;20040;-83
2023/06/09 01:05:36;;;;;;;3.72;1.70;;;;;;;;;;5055850;28;20110;-83
2023/06/09 01:08:22;;;;;;;6.03;2.58;;;;;;;;;;5055377;28;20476;-83
2023/06/09 01:11:37;;;;;;;4.88;2.00;;;;;;;;;;5055699;28;20036;-84
2023/06/09 01:14:10;;;;;;;;;;;;;;;;;;5042594;28;20133;-84
2023/06/09 01:16:44;;;;;;;2.58;1.60;;;;;;;;;;5038181;28;19912;-84
2023/06/09 01:19:16;;;;;;;3.10;2.28;;;;;;;;;;5039321;28;20058;-83
2023/06/09 01:21:45;;;;;;;3.38;1.85;;;;;;;;;;5055214;28;20028;-83
2023/06/09 01:24:33;;;;;;;7.90;2.28;;;;;;;;;;5073232;28;20028;-83
2023/06/09 01:27:01;;;;;;;4.35;2.30;;;;;;;;;;5055852;28;20028;-83
2023/06/09 01:29:27;;;;;;;2.90;1.80;;;;;;;;;;5055115;28;20039;-84
2023/06/09 01:31:53;;;;;;;3.53;1.88;;;;;;;;;;5055565;28;20485;-83
2023/06/09 01:34:18;;;;;;;4.82;2.08;;;;;;;;;;5038885;28;20036;-84
2023/06/09 01:36:45;;;;;;;2.97;1.63;;;;;;;;;;5038386;28;20032;-83
2023/06/09 01:39:11;;;;;;;2.80;1.88;;;;;;;;;;5055039;28;20021;-82
2023/06/09 01:41:36;;;;;;;6.18;2.22;;;;;;;;;;5055102;28;20086;-83
2023/06/09 01:44:01;;;;;;;4.25;2.05;;;;;;;;;;5055287;28;20024;-83
2023/06/09 01:46:27;;;;;;;2.95;1.80;;;;;;;;;;5072851;28;20403;-83
2023/06/09 01:49:08;;;;;;;5.00;2.08;;;;;;;;;;5072923;28;20028;-82
2023/06/09 01:52:02;;;;;;;2.80;1.45;;;;;;;;;;5055100;28;20028;-83
2023/06/09 01:54:34;;;;;;;4.13;1.98;;;;;;;;;;5046698;28;20043;-83
2023/06/09 01:57:14;;;;;;;4.40;1.90;;;;;;;;;;5055213;28;20021;-84
2023/06/09 01:59:54;;;;;;;2.67;1.70;;;;;;;;;;5054930;28;20025;-84
2023/06/09 02:02:20;;;;;;;3.40;1.85;;;;;;;;;;5055245;28;20023;-84
2023/06/09 02:04:47;;;;;;;2.67;1.70;;;;;;;;;;5054839;28;20032;-84
2023/06/09 02:07:16;;;;;;;5.00;2.17;;;;;;;;;;5054711;28;20048;-84
2023/06/09 02:09:44;;;;;;;2.67;1.75;;;;;;;;;;5022498;28;20024;-84
2023/06/09 02:12:10;;;;;;;3.85;2.08;;;;;;;;;;5055162;28;20051;-83
2023/06/09 02:14:35;;;;;;;4.50;2.17;;;;;;;;;;5038312;28;20037;-84
2023/06/09 02:17:04;;;;;;;3.05;1.60;;;;;;;;;;5054971;28;20024;-84
2023/06/09 02:19:30;;;;;;;3.70;1.95;;;;;;;;;;5073126;28;20024;-84
2023/06/09 02:21:57;;;;;;;4.93;2.42;;;;;;;;;;5055013;28;20028;-84
2023/06/09 02:24:27;;;;;;;5.68;2.05;;;;;;;;;;5072501;28;20387;-84
2023/06/09 02:26:56;;;;;;;2.95;1.90;;;;;;;;;;5055299;28;20390;-84
2023/06/09 02:29:25;;;;;;;4.40;2.03;;;;;;;;;;5057828;28;20016;-84
2023/06/09 02:31:50;;;;;;;2.42;1.77;;;;;;;;;;5058315;28;20030;-84
2023/06/09 02:34:16;;;;;;;4.43;1.90;;;;;;;;;;5058076;28;20450;-84
2023/06/09 02:36:42;;;;;;;4.80;1.83;;;;;;;;;;5025033;28;20078;-83
2023/06/09 02:39:08;;;;;;;3.42;1.92;;;;;;;;;;5058213;28;20103;-84
2023/06/09 02:41:34;;;;;;;3.90;2.00;;;;;;;;;;5041617;28;20020;-84
2023/06/09 02:43:59;;;;;;;4.78;2.05;;;;;;;;;;5041481;28;20082;-83
2023/06/09 02:46:25;;;;;;;3.65;1.80;;;;;;;;;;5058036;28;20057;-83
2023/06/09 02:48:50;;;;;;;3.03;1.80;;;;;;;;;;5041380;28;20475;-83
2023/06/09 02:51:16;;;;;;;4.07;2.00;;;;;;;;;;5041162;28;20498;-83
2023/06/09 02:53:41;;;;;;;3.15;1.85;;;;;;;;;;5057764;28;20033;-83
2023/06/09 02:56:06;;;;;;;4.13;1.80;;;;;;;;;;5057714;28;20032;-83
2023/06/09 02:58:32;;;;;;;4.60;1.92;;;;;;;;;;5075524;28;20036;-83
2023/06/09 03:00:58;;;;;;;3.22;1.85;;;;;;;;;;5057710;28;20031;-83
2023/06/09 03:03:25;;;;;;;4.15;1.80;;;;;;;;;;5057933;28;20025;-83
2023/06/09 03:05:52;;;;;;;2.92;2.10;;;;;;;;;;5075200;28;20110;-83
2023/06/09 03:08:17;;;;;;;2.78;1.80;;;;;;;;;;5040825;28;20024;-84
2023/06/09 03:10:43;;;;;;;4.32;1.80;;;;;;;;;;5040793;28;20135;-84
2023/06/09 03:13:08;;;;;;;2.78;1.90;;;;;;;;;;5057345;28;20035;-83
2023/06/09 03:15:33;;;;;;;3.85;2.40;;;;;;;;;;5057795;28;20436;-83
2023/06/09 03:17:59;;;;;;;4.57;2.10;;;;;;;;;;5057507;28;20032;-83
2023/06/09 03:20:24;;;;;;;2.95;1.88;;;;;;;;;;5057288;28;20029;-83
2023/06/09 03:22:52;;;;;;;4.20;2.05;;;;;;;;;;5040566;28;20030;-83
2023/06/09 03:25:19;;;;;;;2.58;1.70;;;;;;;;;;5024249;28;20460;-83
2023/06/09 03:27:44;;;;;;;2.70;1.60;;;;;;;;;;5075006;28;20029;-83
2023/06/09 03:30:10;;;;;;;5.70;2.08;;;;;;;;;;5023680;28;20124;-82
2023/06/09 03:32:36;;;;;;;3.15;1.92;;;;;;;;;;5040539;28;20548;-83
2023/06/09 03:35:01;;;;;;;2.22;1.67;;;;;;;;;;5057303;28;20116;-83
2023/06/09 03:37:27;;;;;;;2.50;1.60;;;;;;;;;;5057549;28;20089;-83
2023/06/09 03:39:52;;;;;;;3.05;2.08;;;;;;;;;;5056739;28;20395;-82
2023/06/09 03:42:18;;;;;;;3.83;2.28;;;;;;;;;;5040449;28;20028;-84
2023/06/09 03:44:43;;;;;;;5.40;1.85;;;;;;;;;;5056512;28;20036;-83
2023/06/09 03:47:09;;;;;;;3.50;1.95;;;;;;;;;;5074606;28;20047;-83
2023/06/09 03:49:35;;;;;;;3.08;1.95;;;;;;;;;;5074652;28;20024;-83
2023/06/09 03:52:00;;;;;;;3.85;2.03;;;;;;;;;;5056431;28;20131;-83
2023/06/09 03:54:26;;;;;;;5.35;2.03;;;;;;;;;;5039977;28;20103;-83
2023/06/09 03:56:52;;;;;;;2.40;1.77;;;;;;;;;;5056727;28;20017;-83
2023/06/09 03:59:18;;;;;;;4.30;1.90;;;;;;;;;;5040818;28;20033;-83
2023/06/09 04:01:43;;;;;;;4.47;2.03;;;;;;;;;;5040504;28;20040;-84
2023/06/09 04:04:09;;;;;;;3.03;1.85;;;;;;;;;;5058310;28;20496;-82
2023/06/09 04:06:35;;;;;;;3.75;2.10;;;;;;;;;;5056429;28;20052;-82
2023/06/09 04:09:03;;;;;;;4.00;2.13;;;;;;;;;;5040013;28;20028;-82
2023/06/09 04:11:29;;;;;;;4.32;2.08;;;;;;;;;;5024233;28;20033;-81
2023/06/09 04:13:55;;;;;;;1.92;1.60;;;;;;;;;;5023522;28;20039;-84
2023/06/09 04:16:20;;;;;;;13.55;3.92;;;;;;;;;;5056403;28;20037;-82
2023/06/09 04:18:46;;;;;;;9.70;4.20;;;;;;;;;;5039997;28;20040;-81
2023/06/09 04:21:13;;;;;;;8.48;3.33;;;;;;;;;;5074242;28;20024;-82
2023/06/09 04:23:38;;;;;;;11.57;3.28;;;;;;;;;;5056808;28;20112;-82
2023/06/09 04:26:05;;;;;;;10.18;3.85;;;;;;;;;;5039508;28;20067;-82
2023/06/09 04:28:32;;;;;;;10.52;3.85;;;;;;;;;;5040144;28;20089;-81
2023/06/09 04:30:57;;;;;;;10.38;4.15;;;;;;;;;;5074166;28;20056;-81
2023/06/09 04:33:24;;;;;;;11.77;4.43;;;;;;;;;;5039295;28;20067;-83
2023/06/09 04:35:54;;;;;;;10.98;4.28;;;;;;;;;;5023334;28;20547;-83
2023/06/09 04:38:23;;;;;;;8.40;3.70;;;;;;;;;;5057126;28;20392;-82
2023/06/09 04:40:49;;;;;;;7.90;3.50;;;;;;;;;;5055886;28;20039;-83
2023/06/09 04:43:14;;;;;;;6.05;3.15;;;;;;;;;;5055896;28;20063;-82
2023/06/09 04:45:41;;;;;;;10.15;3.05;;;;;;;;;;5056262;28;20061;-83
2023/06/09 04:48:07;;;;;;;12.27;3.05;;;;;;;;;;5074622;28;20025;-83
2023/06/09 04:50:33;;;;;;;8.10;3.00;;;;;;;;;;5073650;28;20153;-83
2023/06/09 04:53:06;;;;;;;6.57;3.05;;;;;;;;;;5055602;28;20051;-83
2023/06/09 04:55:32;;;;;;;;;;;;;;;;;;5057143;28;20096;-83
2023/06/09 04:57:57;;;;;;;5.20;2.40;;;;;;;;;;5039260;28;20350;-83
2023/06/09 05:00:26;;;;;;;4.82;2.47;;;;;;;;;;5055769;28;20276;-83
2023/06/09 05:02:53;;;;;;;4.60;2.38;;;;;;;;;;5056020;28;20024;-81
2023/06/09 05:05:19;;;;;;;8.73;2.40;;;;;;;;;;5022837;28;20475;-81
2023/06/09 05:07:44;;;;;;;3.97;2.17;;;;;;;;;;5055776;28;20101;-81
2023/06/09 05:10:10;;;;;;;5.25;2.38;;;;;;;;;;5055487;28;20543;-81
2023/06/09 05:12:36;;;;;;;5.13;2.47;;;;;;;;;;5055811;28;20387;-82
2023/06/09 05:15:05;;;;;;;7.53;2.55;;;;;;;;;;5038754;28;20028;-82
2023/06/09 05:17:36;;;;;;;3.92;2.22;;;;;;;;;;5022857;28;20037;-82
2023/06/09 05:20:05;;;;;;;4.93;2.28;;;;;;;;;;5039063;28;20032;-81
2023/06/09 05:22:31;;;;;;;5.80;2.63;;;;;;;;;;5056457;28;20020;-81
2023/06/09 05:24:56;;;;;;;3.95;2.10;;;;;;;;;;5056142;28;20134;-82
2023/06/09 05:27:21;;;;;;;4.15;2.20;;;;;;;;;;5055134;28;20025;-82
2023/06/09 05:29:47;;;;;;;4.00;2.45;;;;;;;;;;5073455;28;20441;-82
2023/06/09 05:32:12;;;;;;;5.28;2.30;;;;;;;;;;5055201;28;20109;-83
2023/06/09 05:34:38;;;;;;;3.72;2.35;;;;;;;;;;5055458;28;20056;-82
2023/06/09 05:37:04;;;;;;;4.25;2.47;;;;;;;;;;5071993;28;20570;-81
2023/06/09 05:39:29;;;;;;;3.92;2.10;;;;;;;;;;5073206;28;20103;-82
2023/06/09 05:41:55;;;;;;;4.32;2.22;;;;;;;;;;5073339;28;20028;-82
2023/06/09 05:44:20;;;;;;;3.55;2.25;;;;;;;;;;5023889;28;20025;-82
2023/06/09 05:46:46;;;;;;;3.55;2.25;;;;;;;;;;5049581;28;20026;-81
2023/06/09 05:49:11;;;;;;;6.03;2.47;;;;;;;;;;5033406;28;20025;-84
2023/06/09 05:51:36;;;;;;;4.22;2.25;;;;;;;;;;5031926;28;20029;-82
2023/06/09 05:54:02;;;;;;;6.78;2.42;;;;;;;;;;5032936;28;20075;-82
2023/06/09 05:56:28;;;;;;;5.25;2.60;;;;;;;;;;5046545;28;20039;-82
2023/06/09 05:59:01;;;;;;;6.32;2.25;;;;;;;;;;5002098;28;20119;-82
2023/06/09 06:01:27;;;;;;;5.78;2.30;;;;;;;;;;5037718;28;20029;-83
2023/06/09 06:03:52;;;;;;;4.53;2.30;;;;;;;;;;5023413;28;20091;-81
2023/06/09 06:06:18;;;;;;;5.25;2.40;;;;;;;;;;5039186;28;20135;-81
2023/06/09 06:08:43;;;;;;;6.85;2.35;;;;;;;;;;5039115;28;20032;-82
2023/06/09 06:11:09;;;;;;;9.25;2.38;;;;;;;;;;5056659;28;20040;-80
2023/06/09 06:13:34;;;;;;;4.55;2.38;;;;;;;;;;5039323;28;20026;-81
2023/06/09 06:16:00;;;;;;;8.77;2.50;;;;;;;;;;5056601;28;20029;-81
2023/06/09 06:18:25;;;;;;;6.32;2.47;;;;;;;;;;5023045;28;20398;-80
2023/06/09 06:20:51;;;;;;;7.55;2.95;;;;;;;;;;5056722;28;20078;-78
2023/06/09 06:23:17;;;;;;;5.80;2.53;;;;;;;;;;5056538;28;20166;-79
2023/06/09 06:25:42;;;;;;;7.80;2.78;;;;;;;;;;5056816;28;20389;-79
2023/06/09 06:28:07;;;;;;;6.45;2.53;;;;;;;;;;5038475;28;20036;-79
2023/06/09 06:30:33;;;;;;;5.60;2.38;;;;;;;;;;5005759;28;20040;-79
2023/06/09 06:32:58;;;;;;;13.95;2.85;;;;;;;;;;5005380;28;20025;-77
2023/06/09 06:35:25;;;;;;;10.98;2.45;;;;;;;;;;5021857;28;20033;-78
2023/06/09 06:37:51;;;;;;;7.57;2.83;;;;;;;;;;5038587;28;20031;-78
2023/06/09 06:40:17;;;;;;;5.80;2.80;;;;;;;;;;5021681;28;20033;-78
2023/06/09 06:42:42;;;;;;;4.63;2.45;;;;;;;;;;5021740;28;20029;-79
2023/06/09 06:45:08;;;;;;;7.32;2.85;;;;;;;;;;5021964;28;20075;-79
2023/06/09 06:47:33;;;;;;;9.73;3.30;;;;;;;;;;5039039;28;20487;-79
2023/06/09 06:49:59;;;;;;;6.90;2.97;;;;;;;;;;5038636;28;20032;-79
2023/06/09 06:52:24;;;;;;;8.90;2.97;;;;;;;;;;5022559;28;20368;-79
2023/06/09 06:54:50;;;;;;;9.98;2.83;;;;;;;;;;5038977;28;20112;-79
2023/06/09 06:57:15;;;;;;;9.13;2.90;;;;;;;;;;5040958;28;20395;-78
2023/06/09 06:59:40;;;;;;;8.65;3.17;;;;;;;;;;5059391;28;20511;-78
2023/06/09 07:02:06;;;;;;;14.82;3.10;;;;;;;;;;5070728;28;20047;-78
2023/06/09 07:04:31;;;;;;;15.23;3.10;;;;;;;;;;5043048;28;20068;-76
2023/06/09 07:06:57;;;;;;;19.70;3.97;;;;;;;;;;5038625;28;20056;-78
2023/06/09 07:09:24;;;;;;;25.13;4.38;;;;;;;;;;5038987;28;20104;-79
2023/06/09 07:11:49;;;;;;;50.22;4.25;;;;;;;;;;5022532;28;20336;-78
2023/06/09 07:14:14;;;;;;;44.10;6.18;;;;;;;;;;5037829;28;20029;-79
2023/06/09 07:16:40;;;;;;;42.88;4.90;;;;;;;;;;5040548;28;20140;-78
2023/06/09 07:19:07;;;;;;;55.30;6.05;;;;;;;;;;5057432;28;20032;-79
2023/06/09 07:21:33;;;;;;;56.58;5.65;;;;;;;;;;5022406;28;20399;-77
2023/06/09 07:23:58;;;;;;;42.00;4.78;;;;;;;;;;5021608;28;20033;-78
2023/06/09 07:26:25;;;;;;;37.92;4.93;;;;;;;;;;5037686;28;20114;-77
2023/06/09 07:28:50;;;;;;;32.70;5.03;;;;;;;;;;5056382;28;20040;-77
2023/06/09 07:31:15;;;;;;;92.47;15.45;;;;;;;;;;5037503;28;20029;-77
2023/06/09 07:33:41;;;;;;;46.17;7.63;;;;;;;;;;5037173;28;20396;-77
2023/06/09 07:36:10;;;;;;;46.38;6.93;;;;;;;;;;5055036;28;20112;-77
2023/06/09 07:38:37;;;;;;;36.33;6.97;;;;;;;;;;5055040;28;20104;-77
2023/06/09 07:41:03;;;;;;;40.92;7.20;;;;;;;;;;5053733;28;20028;-77
2023/06/09 07:43:28;;;;;;;31.02;6.38;;;;;;;;;;5037482;28;20120;-77
2023/06/09 07:45:54;;;;;;;23.10;5.32;;;;;;;;;;5021451;28;20029;-77
2023/06/09 07:48:20;;;;;;;23.05;6.75;;;;;;;;;;5054837;28;20498;-78
2023/06/09 07:50:45;;;;;;;23.52;6.07;;;;;;;;;;5055046;28;20040;-77
2023/06/09 07:53:11;;;;;;;17.02;5.60;;;;;;;;;;5036800;28;20037;-77
2023/06/09 07:55:37;;;;;;;23.38;5.20;;;;;;;;;;5020417;28;20068;-77
2023/06/09 07:58:02;;;;;;;27.13;4.78;;;;;;;;;;5020475;28;20025;-77
2023/06/09 08:00:27;;;;;;;20.58;5.28;;;;;;;;;;5053353;28;20033;-78
2023/06/09 08:03:00;;;;;;;17.13;4.40;;;;;;;;;;5020076;28;20040;-76
2023/06/09 08:05:26;;;;;;;11.98;4.03;;;;;;;;;;5053197;28;20187;-77
2023/06/09 08:07:51;;;;;;;15.13;4.60;;;;;;;;;;5037185;28;20502;-77
2023/06/09 08:10:17;;;;;;;11.50;4.30;;;;;;;;;;5054611;28;20407;-77
2023/06/09 08:12:42;;;;;;;10.52;3.63;;;;;;;;;;5054457;28;20130;-77
2023/06/09 08:15:08;;;;;;;11.02;4.07;;;;;;;;;;5036798;28;20391;-77
2023/06/09 08:17:33;;;;;;;9.63;3.78;;;;;;;;;;5054423;28;20075;-77
2023/06/09 08:19:59;;;;;;;8.18;3.38;;;;;;;;;;5036787;28;20464;-77
2023/06/09 08:22:24;;;;;;;9.18;3.45;;;;;;;;;;5019994;28;20025;-77
2023/06/09 08:24:49;;;;;;;8.48;3.47;;;;;;;;;;5036249;28;20024;-77
2023/06/09 08:27:15;;;;;;;6.90;3.20;;;;;;;;;;5053259;28;20036;-77
2023/06/09 08:29:41;;;;;;;7.18;3.00;;;;;;;;;;5036096;28;20400;-77
2023/06/09 08:32:06;;;;;;;10.02;3.50;;;;;;;;;;5036172;28;20483;-77
2023/06/09 08:34:32;;;;;;;5.70;2.70;;;;;;;;;;5036149;28;20039;-77
2023/06/09 08:36:58;;;;;;;14.45;3.20;;;;;;;;;;5053939;28;20082;-76
2023/06/09 08:39:23;;;;;;;8.07;2.67;;;;;;;;;;5035980;28;20065;-76
2023/06/09 08:41:51;;;;;;;9.27;3.22;;;;;;;;;;5053792;28;20383;-76
2023/06/09 08:44:18;;;;;;;8.90;2.75;;;;;;;;;;5035296;28;20519;-76
2023/06/09 08:46:46;;;;;;;8.35;2.92;;;;;;;;;;5053081;28;20033;-77
2023/06/09 08:49:13;;;;;;;11.30;3.00;;;;;;;;;;5035348;28;20086;-75
2023/06/09 08:51:38;;;;;;;8.52;3.33;;;;;;;;;;5035126;28;20029;-76
2023/06/09 08:54:04;;;;;;;8.82;3.45;;;;;;;;;;5018698;28;20039;-76
2023/06/09 08:56:31;;;;;;;9.13;2.85;;;;;;;;;;5019181;28;20454;-76
2023/06/09 08:58:56;;;;;;;6.00;2.53;;;;;;;;;;5035518;28;20029;-75
2023/06/09 09:01:23;;;;;;;8.85;3.38;;;;;;;;;;5052942;28;20029;-75
2023/06/09 09:03:48;;;;;;;10.23;3.25;;;;;;;;;;5051330;28;20029;-76
2023/06/09 09:06:14;;;;;;;10.35;3.13;;;;;;;;;;5052606;28;20110;-76
2023/06/09 09:08:40;;;;;;;11.50;3.00;;;;;;;;;;5035130;28;20044;-76
2023/06/09 09:11:05;;;;;;;4.45;2.45;;;;;;;;;;5018853;28;20049;-77
2023/06/09 09:13:31;;;;;;;5.80;3.20;;;;;;;;;;5052487;28;20040;-76
2023/06/09 09:16:01;;;;;;;7.57;3.10;;;;;;;;;;5052900;28;20067;-77
2023/06/09 09:18:35;;;;;;;7.15;3.08;;;;;;;;;;5035018;28;20074;-76
2023/06/09 09:21:02;;;;;;;4.78;2.67;;;;;;;;;;5018434;28;20365;-76
2023/06/09 09:23:31;;;;;;;12.07;3.40;;;;;;;;;;5034844;28;20024;-76
2023/06/09 09:26:05;;;;;;;9.40;2.95;;;;;;;;;;5034641;28;20021;-77
2023/06/09 09:28:41;;;;;;;15.00;3.47;;;;;;;;;;5052593;28;20028;-76
2023/06/09 09:31:08;;;;;;;5.75;3.15;;;;;;;;;;5015515;28;20044;-76
2023/06/09 09:33:38;;;;;;;10.82;3.10;;;;;;;;;;5033234;28;20488;-76
2023/06/09 09:36:08;;;;;;;6.88;3.22;;;;;;;;;;5025835;28;20040;-76
2023/06/09 09:38:33;;;;;;;9.43;3.92;;;;;;;;;;5052894;28;20029;-76
2023/06/09 09:41:00;;;;;;;6.50;3.40;;;;;;;;;;5048027;28;20455;-76
2023/06/09 09:43:27;;;;;;;6.05;3.03;;;;;;;;;;5045628;28;20039;-76
2023/06/09 09:45:54;;;;;;;7.85;3.28;;;;;;;;;;5027517;28;20021;-77
2023/06/09 09:48:22;;;;;;;6.07;3.22;;;;;;;;;;5028260;28;20021;-77
2023/06/09 09:50:48;;;;;;;3.78;2.75;;;;;;;;;;5037026;28;20028;-75
2023/06/09 09:53:15;;;;;;;6.72;3.10;;;;;;;;;;5018795;28;20017;-77
2023/06/09 09:55:45;;;;;;;6.82;3.40;;;;;;;;;;5018928;28;20021;-77
2023/06/09 09:58:12;;;;;;;4.13;3.03;;;;;;;;;;5034814;28;20021;-77
2023/06/09 10:00:41;;;;;;;5.32;3.25;;;;;;;;;;5019310;28;20451;-77
2023/06/09 10:03:17;;;;;;;6.55;3.50;;;;;;;;;;5019314;28;20525;-77
2023/06/09 10:05:48;;;;;;;10.40;4.30;;;;;;;;;;5018770;28;20085;-76
2023/06/09 10:08:21;;;;;;;13.73;4.63;;;;;;;;;;5018980;28;20028;-76
2023/06/09 10:10:47;;;;;;;13.95;5.05;;;;;;;;;;5019302;28;20041;-76
2023/06/09 10:13:13;;;;;;;10.82;5.82;;;;;;;;;;5019029;28;20026;-76
2023/06/09 10:15:42;;;;;;;21.65;6.35;;;;;;;;;;5018984;28;20086;-77
2023/06/09 10:18:08;;;;;;;11.32;5.28;;;;;;;;;;5019185;28;20431;-76
2023/06/09 10:20:34;;;;;;;20.92;5.40;;;;;;;;;;5002641;28;20119;-76
2023/06/09 10:22:59;;;;;;;14.18;5.90;;;;;;;;;;5035404;28;20061;-76
2023/06/09 10:25:26;;;;;;;16.23;5.35;;;;;;;;;;5002519;28;20029;-76
2023/06/09 10:27:51;;;;;;;11.77;5.28;;;;;;;;;;5002696;28;20044;-77
2023/06/09 10:30:17;;;;;;;15.63;5.00;;;;;;;;;;5035146;28;20481;-76
2023/06/09 10:33:12;;;;;;;15.93;4.95;;;;;;;;;;5018464;28;20113;-77
2023/06/09 10:35:38;;;;;;;9.52;4.15;;;;;;;;;;4996088;28;20132;-76
2023/06/09 10:38:31;;;;;;;11.85;4.97;;;;;;;;;;5018431;28;20117;-77
2023/06/09 10:41:15;;;;;;;13.95;4.57;;;;;;;;;;5019058;28;20022;-77
2023/06/09 10:43:59;;;;;;;17.20;5.40;;;;;;;;;;5018386;28;20067;-75
2023/06/09 10:46:47;;;;;;;11.23;4.85;;;;;;;;;;5018929;28;20021;-76
2023/06/09 10:49:25;;;;;;;9.98;4.63;;;;;;;;;;5018096;28;20116;-76
2023/06/09 10:51:54;;;;;;;12.15;4.95;;;;;;;;;;5036529;28;20021;-76
2023/06/09 10:54:24;;;;;;;9.40;4.25;;;;;;;;;;5002705;28;20095;-77
2023/06/09 10:56:54;;;;;;;8.55;4.25;;;;;;;;;;5018271;28;20025;-76
2023/06/09 10:59:25;;;;;;;7.05;3.95;;;;;;;;;;5036249;28;20492;-76
2023/06/09 11:02:03;;;;;;;9.25;4.32;;;;;;;;;;5036073;28;20063;-77
2023/06/09 11:07:15;;;;;;;7.47;3.50;;;;;;;;;;5035710;28;20447;-76
2023/06/09 11:10:01;;;;;;;7.82;4.13;;;;;;;;;;5035714;28;20025;-76
2023/06/09 11:12:26;;;;;;;7.43;3.72;;;;;;;;;;4990727;28;20402;-77
2023/06/09 11:14:52;;;;;;;7.55;3.95;;;;;;;;;;5035515;28;20021;-76
2023/06/09 11:17:30;;;;;;;5.78;3.35;;;;;;;;;;5017969;28;20434;-76
2023/06/09 11:22:47;;;;;;;13.05;3.83;;;;;;;;;;5035949;28;20061;-76
2023/06/09 11:25:19;;;;;;;4.70;3.38;;;;;;;;;;5035860;28;20492;-76
2023/06/09 11:27:46;;;;;;;6.25;3.55;;;;;;;;;;5017900;28;20033;-76
2023/06/09 11:30:23;;;;;;;5.45;3.38;;;;;;;;;;5001806;28;20477;-75
2023/06/09 11:32:53;;;;;;;4.55;3.30;;;;;;;;;;5004309;28;20033;-76
2023/06/09 11:35:28;;;;;;;4.93;3.42;;;;;;;;;;5018367;28;20037;-76
2023/06/09 11:37:58;;;;;;;4.68;3.15;;;;;;;;;;5017638;28;20083;-75
2023/06/09 11:40:28;;;;;;;7.22;3.72;;;;;;;;;;5018148;28;20083;-76
2023/06/09 11:42:58;;;;;;;4.28;3.30;;;;;;;;;;5017315;28;20025;-76
2023/06/09 11:45:24;;;;;;;4.72;3.33;;;;;;;;;;5034149;28;20040;-75
2023/06/09 11:47:56;;;;;;;4.07;3.22;;;;;;;;;;5018249;28;20477;-75
2023/06/09 11:50:22;;;;;;;6.22;3.60;;;;;;;;;;5018773;28;20025;-75
2023/06/09 11:53:01;;;;;;;5.05;3.55;;;;;;;;;;5017501;28;20484;-76
2023/06/09 11:55:28;;;;;;;6.80;3.45;;;;;;;;;;5017524;28;20048;-74
2023/06/09 11:57:54;;;;;;;4.63;3.22;;;;;;;;;;5017667;28;20045;-75
2023/06/09 12:00:26;;;;;;;5.40;3.53;;;;;;;;;;5017881;28;20487;-76
2023/06/09 12:02:52;;;;;;;4.47;3.58;;;;;;;;;;5017684;28;20025;-76
2023/06/09 12:05:17;;;;;;;5.00;3.42;;;;;;;;;;5018738;28;20029;-76
2023/06/09 12:07:44;;;;;;;7.57;3.97;;;;;;;;;;5020088;28;20525;-76
2023/06/09 12:10:12;;;;;;;4.90;3.35;;;;;;;;;;5020880;28;20101;-76
2023/06/09 12:12:45;;;;;;;5.53;3.40;;;;;;;;;;5024542;28;20025;-76
2023/06/09 12:15:11;;;;;;;5.70;3.90;;;;;;;;;;5026350;28;20055;-76
2023/06/09 12:17:37;;;;;;;4.70;3.70;;;;;;;;;;5043073;28;20330;-76
2023/06/09 12:20:34;;;;;;;6.63;3.20;;;;;;;;;;5026387;28;20032;-76
2023/06/09 12:23:14;;;;;;;5.13;3.78;;;;;;;;;;5027929;28;20029;-76
2023/06/09 12:25:43;;;;;;;9.30;3.67;;;;;;;;;;5045659;28;20036;-76
2023/06/09 12:28:23;;;;;;;5.30;3.42;;;;;;;;;;5047456;28;20045;-76
2023/06/09 12:30:53;;;;;;;6.18;3.30;;;;;;;;;;5024724;28;20040;-76
2023/06/09 12:33:21;;;;;;;6.45;3.22;;;;;;;;;;5023597;28;20060;-76
2023/06/09 12:35:47;;;;;;;6.45;3.50;;;;;;;;;;5040286;28;20029;-76
2023/06/09 12:38:21;;;;;;;13.48;4.30;;;;;;;;;;5040330;28;20461;-77
2023/06/09 12:40:50;;;;;;;20.00;6.30;;;;;;;;;;5007377;28;20411;-76
2023/06/09 12:43:17;;;;;;;16.17;6.05;;;;;;;;;;5041646;28;20048;-77
2023/06/09 12:45:43;;;;;;;20.58;6.45;;;;;;;;;;5018761;28;20025;-76
2023/06/09 12:48:09;;;;;;;13.82;5.63;;;;;;;;;;5000748;28;20049;-76
2023/06/09 12:50:35;;;;;;;15.95;5.55;;;;;;;;;;5017191;28;20025;-76
2023/06/09 12:53:00;;;;;;;13.43;4.78;;;;;;;;;;5018712;28;20029;-77
2023/06/09 12:55:26;;;;;;;13.00;5.20;;;;;;;;;;5016943;28;20030;-77
2023/06/09 12:57:51;;;;;;;16.45;6.50;;;;;;;;;;5017256;28;20515;-77
2023/06/09 13:00:17;;;;;;;13.02;4.85;;;;;;;;;;5036283;28;20025;-76
2023/06/09 13:02:43;;;;;;;9.80;4.68;;;;;;;;;;5037355;28;20113;-77
2023/06/09 13:05:09;;;;;;;10.05;4.63;;;;;;;;;;5004770;28;20037;-77
2023/06/09 13:07:34;;;;;;;16.38;4.55;;;;;;;;;;5017212;28;20029;-77
2023/06/09 13:10:00;;;;;;;7.15;4.03;;;;;;;;;;5016401;28;20075;-77
2023/06/09 13:12:26;;;;;;;9.13;4.25;;;;;;;;;;4999368;28;20025;-77
2023/06/09 13:14:51;;;;;;;8.52;4.40;;;;;;;;;;5016151;28;20041;-77
2023/06/09 13:17:17;;;;;;;8.55;4.22;;;;;;;;;;5000268;28;20037;-77
2023/06/09 13:19:42;;;;;;;6.80;4.38;;;;;;;;;;5018739;28;20492;-77
2023/06/09 13:22:07;;;;;;;9.23;3.75;;;;;;;;;;5037475;28;20060;-76
2023/06/09 13:24:33;;;;;;;9.32;4.30;;;;;;;;;;5036944;28;20034;-76
2023/06/09 13:26:58;;;;;;;6.13;4.00;;;;;;;;;;5003948;28;20083;-76
2023/06/09 13:29:24;;;;;;;7.63;3.65;;;;;;;;;;5017177;28;20026;-76
2023/06/09 13:31:49;;;;;;;7.00;3.97;;;;;;;;;;4999105;28;20025;-76
2023/06/09 13:34:15;;;;;;;7.80;4.13;;;;;;;;;;5014982;28;20519;-76
2023/06/09 13:36:40;;;;;;;6.93;3.40;;;;;;;;;;4998930;28;20029;-76
2023/06/09 13:39:06;;;;;;;8.32;3.53;;;;;;;;;;5015218;28;20365;-75
2023/06/09 13:41:31;;;;;;;10.68;3.60;;;;;;;;;;5015180;28;20040;-75
2023/06/09 13:43:59;;;;;;;8.60;3.30;;;;;;;;;;5032648;28;20496;-76
2023/06/09 13:46:24;;;;;;;4.57;3.70;;;;;;;;;;5015349;28;20034;-75
2023/06/09 13:48:50;;;;;;;4.45;3.00;;;;;;;;;;5014939;28;20032;-76
2023/06/09 13:51:15;;;;;;;5.57;3.40;;;;;;;;;;5014909;28;20116;-75
2023/06/09 13:53:41;;;;;;;6.38;3.20;;;;;;;;;;4998681;28;20034;-75
2023/06/09 13:56:06;;;;;;;9.75;3.30;;;;;;;;;;5015047;28;20060;-76
2023/06/09 13:58:32;;;;;;;8.88;3.70;;;;;;;;;;4998394;28;20022;-75
2023/06/09 14:00:57;;;;;;;5.75;3.30;;;;;;;;;;5014784;28;20049;-76
2023/06/09 14:03:23;;;;;;;5.13;3.40;;;;;;;;;;5014492;28;20492;-76
2023/06/09 14:05:49;;;;;;;7.88;3.35;;;;;;;;;;5030829;28;20053;-75
2023/06/09 14:08:14;;;;;;;4.65;3.35;;;;;;;;;;5031029;28;20488;-76
2023/06/09 14:10:40;;;;;;;5.20;3.20;;;;;;;;;;5014839;28;20080;-76
2023/06/09 14:13:05;;;;;;;4.72;3.13;;;;;;;;;;4998162;28;20037;-75
2023/06/09 14:15:31;;;;;;;6.35;3.00;;;;;;;;;;5032126;28;20033;-76
2023/06/09 14:17:57;;;;;;;3.75;3.20;;;;;;;;;;5030856;28;20075;-75
2023/06/09 14:20:25;;;;;;;4.95;3.10;;;;;;;;;;5014747;28;20029;-76
2023/06/09 14:22:51;;;;;;;5.60;3.28;;;;;;;;;;5016335;28;20384;-75
2023/06/09 14:25:21;;;;;;;3.58;3.15;;;;;;;;;;5036003;28;20026;-76
2023/06/09 14:27:51;;;;;;;8.23;3.33;;;;;;;;;;5018658;28;20032;-76
2023/06/09 14:30:18;;;;;;;3.10;2.75;;;;;;;;;;5018317;28;20022;-76
2023/06/09 14:32:46;;;;;;;4.25;2.95;;;;;;;;;;5001558;28;20242;-76
2023/06/09 14:35:13;;;;;;;4.82;3.30;;;;;;;;;;5034108;28;20116;-76
2023/06/09 14:37:38;;;;;;;3.38;3.08;;;;;;;;;;5017543;28;20033;-76
2023/06/09 14:40:04;;;;;;;7.68;2.88;;;;;;;;;;4999561;28;20033;-76
2023/06/09 14:42:29;;;;;;;4.22;2.78;;;;;;;;;;5016893;28;20030;-76
2023/06/09 14:44:55;;;;;;;6.57;3.20;;;;;;;;;;5033750;28;20434;-76
2023/06/09 14:47:20;;;;;;;3.25;2.60;;;;;;;;;;5035011;28;20029;-76
2023/06/09 14:49:46;;;;;;;4.45;2.70;;;;;;;;;;5017722;28;20037;-76